createdAt,value
2018-09-24T00:00:53.341Z,10.30
2018-09-24T00:03:22.575Z,10.20
2018-09-24T00:05:51.820Z,10.10
2018-09-24T00:08:21.017Z,10.00
2018-09-24T00:10:50.391Z,10.10
2018-09-24T00:13:19.608Z,10.20
2018-09-24T00:15:48.920Z,10.50
2018-09-24T00:18:18.173Z,10.70
2018-09-24T00:20:48.400Z,10.80
2018-09-24T00:23:17.753Z,10.80
2018-09-24T00:25:46.981Z,10.80
2018-09-24T00:28:16.180Z,10.60
2018-09-24T00:30:45.655Z,10.50
2018-09-24T00:33:15.046Z,10.30
2018-09-24T00:35:44.412Z,10.20
2018-09-24T00:38:13.708Z,10.40
2018-09-24T00:40:42.937Z,10.30
2018-09-24T00:43:12.334Z,10.10
2018-09-24T00:45:41.559Z,10.10
2018-09-24T00:48:10.821Z,10.00
2018-09-24T00:50:40.137Z,9.80
2018-09-24T00:53:09.416Z,9.50
2018-09-24T00:55:38.638Z,9.30
2018-09-24T00:58:08.095Z,9.20
2018-09-24T01:00:37.722Z,9.10
2018-09-24T01:03:06.936Z,8.90
2018-09-24T01:05:37.570Z,8.80
2018-09-24T01:08:06.894Z,8.60
2018-09-24T01:10:36.935Z,8.60
2018-09-24T01:13:06.144Z,8.80
2018-09-24T01:15:35.360Z,9.10
2018-09-24T01:18:04.571Z,9.30
2018-09-24T01:20:33.816Z,9.20
2018-09-24T01:23:03.009Z,9.10
2018-09-24T01:25:32.267Z,9.00
2018-09-24T01:28:01.504Z,8.90
2018-09-24T01:30:30.810Z,8.80
2018-09-24T01:33:00.099Z,8.80
2018-09-24T01:35:29.684Z,8.90
2018-09-24T01:37:58.887Z,8.90
2018-09-24T01:40:28.216Z,9.00
2018-09-24T01:42:57.603Z,9.20
2018-09-24T01:45:26.843Z,9.40
2018-09-24T01:47:56.757Z,9.70
2018-09-24T01:50:26.053Z,9.80
2018-09-24T01:52:55.988Z,9.90
2018-09-24T01:55:25.188Z,9.90
2018-09-24T01:57:54.613Z,9.80
2018-09-24T02:00:25.168Z,9.60
2018-09-24T02:02:55.071Z,9.60
2018-09-24T02:05:24.364Z,9.50
2018-09-24T02:07:53.582Z,9.60
2018-09-24T02:10:24.063Z,9.70
2018-09-24T02:12:55.504Z,9.70
2018-09-24T02:15:27.392Z,9.70
2018-09-24T02:17:57.524Z,9.60
2018-09-24T02:20:26.977Z,9.60
2018-09-24T02:22:56.468Z,9.40
2018-09-24T02:25:25.908Z,9.30
2018-09-24T02:27:55.747Z,9.30
2018-09-24T02:30:24.964Z,9.30
2018-09-24T02:32:54.246Z,9.40
2018-09-24T02:35:23.456Z,9.60
2018-09-24T02:37:53.592Z,9.80
2018-09-24T02:40:24.158Z,10.00
2018-09-24T02:42:53.352Z,10.10
2018-09-24T02:45:22.568Z,10.10
2018-09-24T02:47:52.574Z,10.10
2018-09-24T02:50:24.386Z,10.10
2018-09-24T02:52:54.507Z,10.20
2018-09-24T02:55:23.739Z,10.10
2018-09-24T02:57:53.573Z,10.00
2018-09-24T03:00:23.179Z,9.80
2018-09-24T03:02:52.371Z,9.70
2018-09-24T03:05:21.568Z,9.70
2018-09-24T03:07:50.841Z,9.70
2018-09-24T03:10:20.058Z,9.70
2018-09-24T03:12:52.263Z,9.60
2018-09-24T03:15:22.135Z,9.50
2018-09-24T03:17:51.355Z,9.40
2018-09-24T03:20:20.790Z,9.40
2018-09-24T03:22:50.011Z,9.50
2018-09-24T03:25:19.795Z,9.50
2018-09-24T03:27:49.073Z,9.50
2018-09-24T03:30:18.695Z,9.60
2018-09-24T03:32:47.905Z,9.60
2018-09-24T03:35:17.165Z,9.90
2018-09-24T03:37:46.380Z,10.10
2018-09-24T03:40:15.613Z,10.10
2018-09-24T03:42:44.854Z,10.00
2018-09-24T03:45:14.099Z,9.90
2018-09-24T03:47:43.443Z,9.80
2018-09-24T03:50:13.111Z,9.80
2018-09-24T03:52:42.673Z,9.70
2018-09-24T03:55:11.895Z,9.70
2018-09-24T03:57:41.996Z,9.80
2018-09-24T04:00:11.314Z,9.90
2018-09-24T04:02:41.163Z,10.00
2018-09-24T04:05:15.639Z,9.90
2018-09-24T04:07:50.127Z,9.60
2018-09-24T04:10:24.862Z,9.60
2018-09-24T04:12:59.437Z,9.50
2018-09-24T04:15:33.961Z,9.40
2018-09-24T04:18:08.520Z,9.30
2018-09-24T04:20:44.183Z,9.30
2018-09-24T04:23:18.669Z,9.40
2018-09-24T04:25:53.223Z,9.40
2018-09-24T04:28:28.459Z,9.30
2018-09-24T04:31:03.156Z,9.40
2018-09-24T04:33:37.639Z,9.30
2018-09-24T04:36:12.209Z,9.10
2018-09-24T04:38:46.763Z,9.20
2018-09-24T04:41:21.300Z,9.20
2018-09-24T04:43:55.879Z,9.30
2018-09-24T04:46:30.356Z,9.50
2018-09-24T04:49:05.517Z,9.80
2018-09-24T04:51:40.041Z,10.10
2018-09-24T04:54:14.696Z,10.10
2018-09-24T04:56:50.340Z,10.10
2018-09-24T04:59:24.853Z,10.00
2018-09-24T05:01:59.627Z,9.90
2018-09-24T05:04:34.520Z,9.90
2018-09-24T05:07:09.035Z,10.00
2018-09-24T05:09:43.640Z,10.10
2018-09-24T05:12:18.440Z,10.00
2018-09-24T05:14:52.976Z,9.80
2018-09-24T05:17:27.473Z,9.70
2018-09-24T05:20:02.599Z,9.70
2018-09-24T05:22:37.788Z,9.60
2018-09-24T05:25:12.358Z,9.40
2018-09-24T05:27:46.832Z,9.30
2018-09-24T05:30:21.764Z,9.30
2018-09-24T05:32:56.180Z,9.30
2018-09-24T05:35:30.872Z,9.20
2018-09-24T05:38:05.613Z,9.10
2018-09-24T05:40:40.171Z,9.00
2018-09-24T05:43:14.531Z,9.20
2018-09-24T05:45:49.107Z,9.30
2018-09-24T05:48:23.608Z,9.30
2018-09-24T05:50:58.057Z,9.40
2018-09-24T05:53:32.674Z,9.50
2018-09-24T05:56:07.127Z,9.70
2018-09-24T05:58:42.507Z,10.00
2018-09-24T06:01:16.936Z,10.20
2018-09-24T06:03:52.051Z,10.40
2018-09-24T06:06:26.685Z,10.40
2018-09-24T06:09:01.429Z,10.40
2018-09-24T06:11:35.968Z,10.40
2018-09-24T06:14:10.441Z,10.50
2018-09-24T06:16:45.062Z,10.60
2018-09-24T06:19:19.536Z,10.50
2018-09-24T06:21:54.102Z,10.60
2018-09-24T06:24:28.579Z,10.60
2018-09-24T06:27:03.259Z,10.50
2018-09-24T06:29:37.899Z,10.50
2018-09-24T06:32:12.614Z,10.60
2018-09-24T06:34:47.379Z,10.70
2018-09-24T06:37:21.958Z,11.00
2018-09-24T06:39:56.303Z,11.10
2018-09-24T06:42:30.878Z,11.10
2018-09-24T06:45:05.460Z,11.10
2018-09-24T06:47:40.069Z,11.10
2018-09-24T06:50:14.532Z,11.10
2018-09-24T06:52:49.548Z,11.20
2018-09-24T06:55:24.151Z,11.50
2018-09-24T06:57:58.573Z,11.80
2018-09-24T07:00:33.271Z,12.10
2018-09-24T07:03:08.029Z,12.20
2018-09-24T07:05:42.515Z,12.40
2018-09-24T07:08:17.011Z,12.40
2018-09-24T07:10:51.713Z,12.00
2018-09-24T07:13:26.961Z,11.50
2018-09-24T07:16:01.486Z,11.20
2018-09-24T07:18:36.046Z,11.10
2018-09-24T07:21:10.606Z,11.30
2018-09-24T07:23:45.797Z,11.50
2018-09-24T07:26:20.255Z,11.60
2018-09-24T07:28:54.920Z,11.40
2018-09-24T07:31:29.508Z,10.70
2018-09-24T07:34:04.440Z,10.30
2018-09-24T07:36:39.039Z,10.00
2018-09-24T07:39:15.300Z,9.80
2018-09-24T07:41:49.997Z,9.80
2018-09-24T07:44:24.788Z,10.10
2018-09-24T07:46:59.273Z,10.70
2018-09-24T07:49:33.841Z,11.60
2018-09-24T07:52:08.323Z,12.30
2018-09-24T07:54:42.769Z,12.90
2018-09-24T07:57:17.823Z,13.30
2018-09-24T07:59:52.435Z,13.70
2018-09-24T08:02:27.159Z,14.10
2018-09-24T08:05:02.369Z,14.50
2018-09-24T08:07:36.920Z,14.70
2018-09-24T08:10:11.589Z,15.10
2018-09-24T08:12:46.657Z,15.50
2018-09-24T08:15:23.195Z,15.70
2018-09-24T08:17:57.942Z,15.90
2018-09-24T08:20:32.832Z,16.10
2018-09-24T08:23:07.372Z,16.20
2018-09-24T08:25:43.001Z,15.90
2018-09-24T08:28:17.730Z,15.20
2018-09-24T08:30:52.383Z,14.50
2018-09-24T08:33:27.655Z,14.20
2018-09-24T08:36:02.260Z,14.10
2018-09-24T08:38:36.839Z,13.80
2018-09-24T08:41:11.375Z,14.40
2018-09-24T08:43:45.836Z,15.40
2018-09-24T08:46:20.601Z,15.40
2018-09-24T08:48:55.232Z,14.10
2018-09-24T08:51:29.845Z,12.80
2018-09-24T08:54:06.272Z,12.10
2018-09-24T08:56:40.941Z,12.00
2018-09-24T08:59:15.557Z,12.80
2018-09-24T09:01:50.749Z,14.10
2018-09-24T09:04:25.416Z,15.30
2018-09-24T09:07:00.216Z,16.20
2018-09-24T09:09:34.831Z,17.20
2018-09-24T09:12:09.521Z,17.70
2018-09-24T09:14:43.976Z,18.10
2018-09-24T09:17:18.616Z,18.30
2018-09-24T09:19:53.248Z,17.80
2018-09-24T09:22:27.895Z,17.70
2018-09-24T09:25:02.415Z,18.00
2018-09-24T09:27:36.985Z,18.10
2018-09-24T09:30:12.436Z,17.50
2018-09-24T09:32:47.136Z,15.60
2018-09-24T09:35:21.639Z,14.60
2018-09-24T09:37:56.335Z,14.60
2018-09-24T09:40:30.987Z,15.60
2018-09-24T09:43:05.574Z,15.50
2018-09-24T09:45:40.973Z,15.40
2018-09-24T09:48:15.932Z,14.50
2018-09-24T09:50:50.671Z,13.50
2018-09-24T09:53:25.392Z,12.50
2018-09-24T09:56:00.539Z,12.20
2018-09-24T09:58:34.956Z,12.90
2018-09-24T10:01:09.500Z,14.30
2018-09-24T10:03:44.152Z,15.80
2018-09-24T10:06:18.620Z,16.80
2018-09-24T10:08:53.167Z,16.90
2018-09-24T10:11:29.157Z,17.10
2018-09-24T10:14:03.693Z,16.90
2018-09-24T10:16:38.323Z,16.50
2018-09-24T10:19:13.104Z,15.30
2018-09-24T10:21:47.896Z,14.10
2018-09-24T10:24:22.589Z,14.30
2018-09-24T10:26:57.122Z,15.20
2018-09-24T10:29:31.943Z,16.20
2018-09-24T10:32:06.994Z,16.90
2018-09-24T10:34:41.591Z,17.60
2018-09-24T10:37:16.143Z,17.10
2018-09-24T10:39:51.211Z,15.80
2018-09-24T10:42:25.897Z,15.40
2018-09-24T10:45:00.607Z,16.20
2018-09-24T10:47:35.264Z,16.70
2018-09-24T10:50:09.775Z,17.50
2018-09-24T10:52:44.660Z,17.80
2018-09-24T10:55:19.137Z,18.20
2018-09-24T10:57:54.149Z,18.30
2018-09-24T11:00:28.885Z,18.30
2018-09-24T11:03:03.547Z,17.70
2018-09-24T11:05:39.360Z,16.40
2018-09-24T11:08:13.844Z,15.90
2018-09-24T11:10:48.384Z,16.00
2018-09-24T11:13:23.000Z,17.10
2018-09-24T11:15:57.617Z,17.40
2018-09-24T11:18:32.240Z,16.90
2018-09-24T11:21:06.748Z,16.10
2018-09-24T11:23:41.267Z,15.80
2018-09-24T11:28:50.903Z,17.40
2018-09-24T11:31:25.445Z,18.60
2018-09-24T11:33:59.987Z,19.20
2018-09-24T11:36:34.705Z,19.40
2018-09-24T11:39:09.772Z,19.20
2018-09-24T11:41:44.276Z,19.00
2018-09-24T11:44:19.027Z,18.10
2018-09-24T11:46:53.808Z,17.00
2018-09-24T11:49:28.398Z,16.20
2018-09-24T11:52:02.945Z,16.00
2018-09-24T11:54:37.767Z,16.40
2018-09-24T11:57:12.451Z,17.30
2018-09-24T11:59:47.978Z,18.30
2018-09-24T12:02:22.717Z,18.70
2018-09-24T12:04:57.375Z,18.90
2018-09-24T12:07:32.035Z,19.20
2018-09-24T12:10:06.648Z,18.90
2018-09-24T12:12:41.212Z,17.80
2018-09-24T12:15:15.743Z,16.50
2018-09-24T12:17:51.622Z,15.90
2018-09-24T12:20:26.396Z,15.50
2018-09-24T12:23:00.913Z,16.00
2018-09-24T12:25:35.407Z,17.40
2018-09-24T12:28:09.985Z,17.80
2018-09-24T12:30:44.912Z,18.00
2018-09-24T12:33:19.415Z,18.60
2018-09-24T12:35:54.309Z,18.60
2018-09-24T12:38:28.866Z,18.70
2018-09-24T12:41:03.601Z,19.10
2018-09-24T12:43:38.387Z,19.00
2018-09-24T12:46:13.028Z,18.50
2018-09-24T12:48:47.654Z,18.30
2018-09-24T12:51:22.248Z,18.40
2018-09-24T12:53:56.847Z,19.20
2018-09-24T12:56:31.409Z,18.90
2018-09-24T12:59:05.974Z,17.40
2018-09-24T13:01:40.547Z,16.20
2018-09-24T13:04:15.599Z,16.40
2018-09-24T13:06:50.109Z,17.70
2018-09-24T13:09:25.029Z,18.20
2018-09-24T13:11:59.532Z,19.00
2018-09-24T13:14:34.088Z,19.10
2018-09-24T13:17:08.782Z,19.10
2018-09-24T13:19:43.364Z,18.10
2018-09-24T13:22:17.923Z,17.70
2018-09-24T13:24:52.625Z,18.20
2018-09-24T13:27:27.125Z,17.70
2018-09-24T13:30:01.647Z,16.70
2018-09-24T13:32:36.484Z,16.40
2018-09-24T13:35:11.185Z,17.20
2018-09-24T13:37:46.064Z,18.40
2018-09-24T13:40:20.784Z,19.60
2018-09-24T13:42:55.313Z,19.00
2018-09-24T13:45:29.936Z,17.90
2018-09-24T13:48:04.537Z,18.30
2018-09-24T13:50:39.105Z,19.00
2018-09-24T13:53:13.605Z,18.80
2018-09-24T13:55:48.108Z,19.40
2018-09-24T13:58:22.760Z,19.20
2018-09-24T14:00:57.271Z,18.40
2018-09-24T14:03:31.966Z,18.20
2018-09-24T14:06:06.934Z,18.20
2018-09-24T14:08:41.381Z,18.00
2018-09-24T14:11:16.220Z,18.70
2018-09-24T14:13:50.683Z,19.20
2018-09-24T14:16:26.133Z,19.40
2018-09-24T14:19:00.891Z,18.80
2018-09-24T14:21:35.578Z,18.50
2018-09-24T14:24:11.860Z,18.40
2018-09-24T14:26:46.351Z,18.20
2018-09-24T14:29:21.004Z,17.50
2018-09-24T14:31:55.974Z,17.60
2018-09-24T14:34:30.811Z,17.60
2018-09-24T14:37:05.487Z,17.30
2018-09-24T14:39:39.953Z,17.10
2018-09-24T14:42:14.718Z,17.50
2018-09-24T14:44:49.387Z,17.70
2018-09-24T14:47:23.935Z,16.60
2018-09-24T14:49:59.271Z,15.30
2018-09-24T14:52:33.884Z,14.60
2018-09-24T14:55:08.393Z,14.00
2018-09-24T14:57:43.123Z,13.70
2018-09-24T15:00:18.247Z,13.70
2018-09-24T15:02:52.856Z,14.90
2018-09-24T15:05:28.092Z,16.60
2018-09-24T15:08:02.485Z,18.20
2018-09-24T15:10:37.310Z,19.20
2018-09-24T15:13:11.996Z,19.50
2018-09-24T15:15:46.500Z,19.50
2018-09-24T15:18:22.036Z,19.50
2018-09-24T15:20:56.688Z,17.70
2018-09-24T15:23:31.787Z,14.30
2018-09-24T15:26:06.363Z,12.40
2018-09-24T15:28:41.484Z,11.90
2018-09-24T15:31:16.024Z,12.90
2018-09-24T15:33:50.692Z,13.20
2018-09-24T15:36:25.462Z,12.80
2018-09-24T15:39:00.067Z,12.40
2018-09-24T15:41:35.164Z,12.20
2018-09-24T15:44:09.890Z,12.10
2018-09-24T15:46:44.524Z,12.00
2018-09-24T15:49:19.200Z,11.90
2018-09-24T15:51:53.808Z,11.80
2018-09-24T15:54:28.635Z,11.60
2018-09-24T15:57:04.016Z,11.50
2018-09-24T15:59:38.635Z,11.50
2018-09-24T16:02:13.305Z,11.60
2018-09-24T16:04:47.798Z,11.60
2018-09-24T16:07:22.172Z,11.60
2018-09-24T16:09:56.857Z,11.70
2018-09-24T16:12:31.373Z,11.80
2018-09-24T16:15:06.035Z,12.00
2018-09-24T16:17:40.628Z,12.20
2018-09-24T16:20:15.803Z,12.60
2018-09-24T16:22:50.505Z,12.80
2018-09-24T16:25:25.100Z,12.70
2018-09-24T16:27:59.823Z,12.30
2018-09-24T16:30:34.351Z,11.90
2018-09-24T16:33:08.805Z,11.70
2018-09-24T16:35:43.701Z,11.60
2018-09-24T16:38:19.346Z,11.50
2018-09-24T16:40:53.879Z,11.40
2018-09-24T16:43:28.356Z,11.40
2018-09-24T16:46:02.919Z,11.30
2018-09-24T16:48:37.458Z,11.20
2018-09-24T16:51:12.515Z,11.10
2018-09-24T16:53:47.361Z,11.00
2018-09-24T16:56:21.820Z,11.00
2018-09-24T16:58:56.591Z,11.00
2018-09-24T17:01:31.140Z,10.90
2018-09-24T17:04:05.718Z,10.90
2018-09-24T17:06:40.234Z,10.90
2018-09-24T17:09:15.942Z,10.80
2018-09-24T17:11:50.670Z,10.80
2018-09-24T17:14:25.164Z,10.70
2018-09-24T17:17:00.389Z,10.70
2018-09-24T17:19:34.859Z,10.70
2018-09-24T17:22:09.329Z,10.70
2018-09-24T17:24:44.652Z,10.70
2018-09-24T17:27:19.476Z,10.60
2018-09-24T17:29:53.997Z,10.50
2018-09-24T17:32:29.521Z,10.50
2018-09-24T17:35:04.154Z,10.50
2018-09-24T17:37:38.837Z,10.40
2018-09-24T17:40:13.788Z,10.50
2018-09-24T17:42:48.225Z,10.50
2018-09-24T17:45:23.947Z,10.40
2018-09-24T17:47:58.517Z,10.40
2018-09-24T17:50:32.987Z,10.30
2018-09-24T17:53:07.546Z,10.20
2018-09-24T17:55:42.133Z,10.00
2018-09-24T17:58:16.688Z,9.90
2018-09-24T18:00:51.438Z,9.80
2018-09-24T18:03:26.029Z,10.00
2018-09-24T18:06:00.616Z,10.00
2018-09-24T18:08:35.228Z,10.00
2018-09-24T18:11:09.939Z,10.10
2018-09-24T18:13:44.484Z,10.10
2018-09-24T18:16:19.213Z,10.10
2018-09-24T18:18:54.276Z,10.20
2018-09-24T18:21:28.889Z,10.20
2018-09-24T18:24:03.467Z,10.20
2018-09-24T18:26:38.039Z,10.20
2018-09-24T18:29:12.927Z,10.10
2018-09-24T18:31:47.735Z,10.00
2018-09-24T18:34:23.400Z,9.90
2018-09-24T18:36:57.892Z,9.80
2018-09-24T18:39:32.426Z,9.70
2018-09-24T18:42:06.863Z,9.60
2018-09-24T18:44:42.071Z,9.40
2018-09-24T18:47:16.512Z,9.30
2018-09-24T18:49:51.177Z,9.10
2018-09-24T18:52:25.582Z,8.90
2018-09-24T18:55:00.147Z,8.80
2018-09-24T18:57:34.714Z,8.70
2018-09-24T19:00:09.300Z,8.70
2018-09-24T19:02:43.930Z,8.50
2018-09-24T19:05:18.491Z,8.50
2018-09-24T19:07:53.136Z,8.40
2018-09-24T19:10:27.644Z,8.30
2018-09-24T19:13:02.187Z,8.20
2018-09-24T19:15:36.812Z,8.20
2018-09-24T19:18:11.968Z,8.10
2018-09-24T19:20:46.544Z,8.10
2018-09-24T19:23:21.411Z,8.00
2018-09-24T19:25:55.842Z,8.10
2018-09-24T19:28:31.630Z,8.10
2018-09-24T19:31:06.239Z,8.10
2018-09-24T19:33:40.732Z,8.20
2018-09-24T19:36:15.287Z,8.30
2018-09-24T19:38:50.697Z,8.40
2018-09-24T19:41:25.316Z,8.50
2018-09-24T19:43:59.992Z,8.60
2018-09-24T19:46:34.628Z,8.70
2018-09-24T19:49:09.238Z,8.70
2018-09-24T19:51:44.117Z,8.80
2018-09-24T19:54:19.347Z,8.80
2018-09-24T19:56:53.927Z,9.00
2018-09-24T19:59:35.403Z,9.10
2018-09-24T20:02:10.619Z,9.20
2018-09-24T20:04:45.209Z,9.20
2018-09-24T20:07:19.930Z,9.10
2018-09-24T20:09:55.022Z,9.10
2018-09-24T20:12:29.687Z,9.00
2018-09-24T20:15:04.304Z,9.00
2018-09-24T20:17:39.587Z,9.00
2018-09-24T20:20:14.137Z,9.00
2018-09-24T20:22:48.976Z,9.00
2018-09-24T20:25:23.547Z,8.90
2018-09-24T20:27:58.030Z,8.80
2018-09-24T20:30:33.168Z,8.80
2018-09-24T20:33:08.408Z,8.70
2018-09-24T20:35:43.007Z,8.70
2018-09-24T20:38:17.648Z,8.70
2018-09-24T20:40:52.691Z,8.80
2018-09-24T20:43:27.118Z,8.80
2018-09-24T20:46:02.474Z,8.80
2018-09-24T20:48:37.020Z,8.90
2018-09-24T20:51:11.867Z,9.00
2018-09-24T20:53:46.438Z,9.10
2018-09-24T20:56:21.076Z,9.20
2018-09-24T20:58:55.895Z,9.20
2018-09-24T21:01:30.529Z,9.10
2018-09-24T21:04:05.181Z,9.00
2018-09-24T21:06:39.774Z,8.80
2018-09-24T21:09:14.879Z,8.70
2018-09-24T21:11:49.454Z,8.50
2018-09-24T21:14:24.701Z,8.40
2018-09-24T21:16:59.428Z,8.30
2018-09-24T21:19:33.887Z,8.20
2018-09-24T21:22:08.476Z,8.10
2018-09-24T21:24:43.144Z,8.00
2018-09-24T21:27:17.889Z,8.00
2018-09-24T21:29:52.444Z,7.90
2018-09-24T21:32:27.593Z,8.00
2018-09-24T21:35:03.129Z,8.00
2018-09-24T21:37:37.655Z,8.00
2018-09-24T21:40:12.527Z,7.90
2018-09-24T21:42:47.208Z,7.80
2018-09-24T21:45:22.348Z,7.80
2018-09-24T21:47:56.985Z,7.70
2018-09-24T21:50:31.652Z,7.70
2018-09-24T21:53:06.233Z,7.70
2018-09-24T21:55:40.814Z,7.60
2018-09-24T21:58:16.068Z,7.60
2018-09-24T22:00:50.511Z,7.60
2018-09-24T22:03:25.172Z,7.60
2018-09-24T22:05:59.844Z,7.60
2018-09-24T22:08:34.446Z,7.50
2018-09-24T22:11:09.011Z,7.50
2018-09-24T22:13:43.640Z,7.50
2018-09-24T22:16:18.133Z,7.50
2018-09-24T22:18:52.678Z,7.50
2018-09-24T22:21:27.476Z,7.60
2018-09-24T22:24:03.639Z,7.60
2018-09-24T22:26:38.206Z,7.70
2018-09-24T22:29:12.952Z,7.70
2018-09-24T22:31:47.601Z,7.80
2018-09-24T22:34:22.171Z,8.00
2018-09-24T22:36:56.664Z,8.20
2018-09-24T22:39:31.390Z,8.40
2018-09-24T22:42:05.900Z,8.50
2018-09-24T22:44:40.471Z,8.40
2018-09-24T22:47:15.103Z,8.40
2018-09-24T22:49:49.620Z,8.40
2018-09-24T22:52:24.856Z,8.50
2018-09-24T22:54:59.637Z,8.60
2018-09-24T22:57:34.164Z,8.70
2018-09-24T23:00:09.044Z,8.80
2018-09-24T23:02:43.709Z,8.90
2018-09-24T23:05:18.296Z,8.90
2018-09-24T23:07:52.932Z,9.00
2018-09-24T23:10:28.131Z,9.00
2018-09-24T23:13:02.660Z,9.10
2018-09-24T23:15:37.287Z,9.20
2018-09-24T23:18:12.024Z,9.20
2018-09-24T23:20:46.540Z,9.30
2018-09-24T23:23:21.058Z,9.20
2018-09-24T23:25:55.884Z,9.20
2018-09-24T23:28:30.437Z,9.30
2018-09-24T23:31:04.957Z,9.20
2018-09-24T23:33:39.584Z,9.10
2018-09-24T23:36:14.067Z,9.10
2018-09-24T23:38:48.619Z,9.10
2018-09-24T23:41:23.279Z,8.90
2018-09-24T23:43:57.751Z,8.90
2018-09-24T23:46:32.331Z,8.90
2018-09-24T23:49:06.898Z,8.70
2018-09-24T23:51:41.601Z,8.60
2018-09-24T23:54:16.055Z,8.60
2018-09-24T23:56:50.589Z,8.50
2018-09-24T23:59:25.122Z,8.50
